sensor_id;sensor_type;location;lat;lon;timestamp;temperature;humidity
32097;DHT22;18610;49.916;8.284;2023-07-28T00:00:09;17.30;99.90
32097;DHT22;18610;49.916;8.284;2023-07-28T00:02:37;17.30;99.90
32097;DHT22;18610;49.916;8.284;2023-07-28T00:05:05;17.20;99.90
32097;DHT22;18610;49.916;8.284;2023-07-28T00:07:31;17.20;99.90
32097;DHT22;18610;49.916;8.284;2023-07-28T00:10:00;17.20;99.90
32097;DHT22;18610;49.916;8.284;2023-07-28T00:12:27;17.20;99.90
32097;DHT22;18610;49.916;8.284;2023-07-28T00:14:54;17.20;99.90
32097;DHT22;18610;49.916;8.284;2023-07-28T00:17:21;17.20;99.90
32097;DHT22;18610;49.916;8.284;2023-07-28T00:19:49;17.20;99.90
32097;DHT22;18610;49.916;8.284;2023-07-28T00:22:16;17.20;99.90
32097;DHT22;18610;49.916;8.284;2023-07-28T00:24:43;17.20;99.90
32097;DHT22;18610;49.916;8.284;2023-07-28T00:27:09;17.20;99.90
32097;DHT22;18610;49.916;8.284;2023-07-28T00:29:38;17.20;99.90
32097;DHT22;18610;49.916;8.284;2023-07-28T00:32:05;17.20;99.90
32097;DHT22;18610;49.916;8.284;2023-07-28T00:34:32;17.20;99.90
32097;DHT22;18610;49.916;8.284;2023-07-28T00:37:00;17.20;99.90
32097;DHT22;18610;49.916;8.284;2023-07-28T00:39:27;17.20;99.90
32097;DHT22;18610;49.916;8.284;2023-07-28T00:41:53;17.20;99.90
32097;DHT22;18610;49.916;8.284;2023-07-28T00:44:20;17.20;99.90
32097;DHT22;18610;49.916;8.284;2023-07-28T00:46:47;17.20;99.90
32097;DHT22;18610;49.916;8.284;2023-07-28T00:49:14;17.20;99.90
32097;DHT22;18610;49.916;8.284;2023-07-28T00:51:41;17.20;99.90
32097;DHT22;18610;49.916;8.284;2023-07-28T00:54:09;17.20;99.90
32097;DHT22;18610;49.916;8.284;2023-07-28T00:56:37;17.20;99.90
32097;DHT22;18610;49.916;8.284;2023-07-28T00:59:04;17.20;99.90
32097;DHT22;18610;49.916;8.284;2023-07-28T01:01:30;17.20;99.90
32097;DHT22;18610;49.916;8.284;2023-07-28T01:03:57;17.20;99.90
32097;DHT22;18610;49.916;8.284;2023-07-28T01:06:32;17.20;99.90
32097;DHT22;18610;49.916;8.284;2023-07-28T01:09:03;17.20;99.90
32097;DHT22;18610;49.916;8.284;2023-07-28T01:11:32;17.20;99.90
32097;DHT22;18610;49.916;8.284;2023-07-28T01:13:58;17.20;99.90
32097;DHT22;18610;49.916;8.284;2023-07-28T01:16:25;17.20;99.90
32097;DHT22;18610;49.916;8.284;2023-07-28T01:18:52;17.30;99.90
32097;DHT22;18610;49.916;8.284;2023-07-28T01:21:21;17.20;99.90
32097;DHT22;18610;49.916;8.284;2023-07-28T01:23:55;17.20;99.90
32097;DHT22;18610;49.916;8.284;2023-07-28T01:26:30;17.20;99.90
32097;DHT22;18610;49.916;8.284;2023-07-28T01:28:57;17.20;99.90
32097;DHT22;18610;49.916;8.284;2023-07-28T01:31:24;17.20;99.90
32097;DHT22;18610;49.916;8.284;2023-07-28T01:33:51;17.20;99.90
32097;DHT22;18610;49.916;8.284;2023-07-28T01:36:18;17.20;99.90
32097;DHT22;18610;49.916;8.284;2023-07-28T01:38:44;17.20;99.90
32097;DHT22;18610;49.916;8.284;2023-07-28T01:41:11;17.20;99.90
32097;DHT22;18610;49.916;8.284;2023-07-28T01:43:39;17.20;99.90
32097;DHT22;18610;49.916;8.284;2023-07-28T01:46:07;17.20;99.90
32097;DHT22;18610;49.916;8.284;2023-07-28T01:48:34;17.20;99.90
32097;DHT22;18610;49.916;8.284;2023-07-28T01:51:00;17.20;99.90
32097;DHT22;18610;49.916;8.284;2023-07-28T01:53:27;17.20;99.90
32097;DHT22;18610;49.916;8.284;2023-07-28T01:55:54;17.20;99.90
32097;DHT22;18610;49.916;8.284;2023-07-28T01:58:20;17.20;99.90
32097;DHT22;18610;49.916;8.284;2023-07-28T02:00:48;17.20;99.90
32097;DHT22;18610;49.916;8.284;2023-07-28T02:03:15;17.20;99.90
32097;DHT22;18610;49.916;8.284;2023-07-28T02:05:41;17.10;99.90
32097;DHT22;18610;49.916;8.284;2023-07-28T02:08:10;17.10;99.90
32097;DHT22;18610;49.916;8.284;2023-07-28T02:10:36;17.10;99.90
32097;DHT22;18610;49.916;8.284;2023-07-28T02:13:03;17.10;99.90
32097;DHT22;18610;49.916;8.284;2023-07-28T02:15:30;17.10;99.90
32097;DHT22;18610;49.916;8.284;2023-07-28T02:17:58;17.10;99.90
32097;DHT22;18610;49.916;8.284;2023-07-28T02:20:24;17.10;99.90
32097;DHT22;18610;49.916;8.284;2023-07-28T02:22:51;17.20;99.90
32097;DHT22;18610;49.916;8.284;2023-07-28T02:25:18;17.10;99.90
32097;DHT22;18610;49.916;8.284;2023-07-28T02:27:44;17.10;99.90
32097;DHT22;18610;49.916;8.284;2023-07-28T02:30:11;17.20;99.90
32097;DHT22;18610;49.916;8.284;2023-07-28T02:32:38;17.20;99.90
32097;DHT22;18610;49.916;8.284;2023-07-28T02:35:06;17.10;99.90
32097;DHT22;18610;49.916;8.284;2023-07-28T02:37:33;17.20;99.90
32097;DHT22;18610;49.916;8.284;2023-07-28T02:40:00;17.20;99.90
32097;DHT22;18610;49.916;8.284;2023-07-28T02:42:27;17.20;99.90
32097;DHT22;18610;49.916;8.284;2023-07-28T02:44:53;17.20;99.90
32097;DHT22;18610;49.916;8.284;2023-07-28T02:47:20;17.20;99.90
32097;DHT22;18610;49.916;8.284;2023-07-28T02:49:47;17.10;99.90
32097;DHT22;18610;49.916;8.284;2023-07-28T02:52:15;17.10;99.90
32097;DHT22;18610;49.916;8.284;2023-07-28T02:54:41;17.10;99.90
32097;DHT22;18610;49.916;8.284;2023-07-28T02:57:08;17.10;99.90
32097;DHT22;18610;49.916;8.284;2023-07-28T02:59:35;17.10;99.90
32097;DHT22;18610;49.916;8.284;2023-07-28T03:02:01;17.10;99.90
32097;DHT22;18610;49.916;8.284;2023-07-28T03:04:28;17.10;99.90
32097;DHT22;18610;49.916;8.284;2023-07-28T03:06:55;17.10;99.90
32097;DHT22;18610;49.916;8.284;2023-07-28T03:09:23;17.10;99.90
32097;DHT22;18610;49.916;8.284;2023-07-28T03:11:49;17.10;99.90
32097;DHT22;18610;49.916;8.284;2023-07-28T03:14:16;17.10;99.90
32097;DHT22;18610;49.916;8.284;2023-07-28T03:16:42;17.10;99.90
32097;DHT22;18610;49.916;8.284;2023-07-28T03:19:09;17.10;99.90
32097;DHT22;18610;49.916;8.284;2023-07-28T03:21:36;17.10;99.90
32097;DHT22;18610;49.916;8.284;2023-07-28T03:24:03;17.10;99.90
32097;DHT22;18610;49.916;8.284;2023-07-28T03:26:31;17.10;99.90
32097;DHT22;18610;49.916;8.284;2023-07-28T03:28:58;17.00;99.90
32097;DHT22;18610;49.916;8.284;2023-07-28T03:31:24;17.00;99.90
32097;DHT22;18610;49.916;8.284;2023-07-28T03:33:51;17.00;99.90
32097;DHT22;18610;49.916;8.284;2023-07-28T03:36:21;17.00;99.90
32097;DHT22;18610;49.916;8.284;2023-07-28T03:38:47;17.10;99.90
32097;DHT22;18610;49.916;8.284;2023-07-28T03:41:14;17.10;99.90
32097;DHT22;18610;49.916;8.284;2023-07-28T03:43:42;17.10;99.90
32097;DHT22;18610;49.916;8.284;2023-07-28T03:46:09;17.10;99.90
32097;DHT22;18610;49.916;8.284;2023-07-28T03:48:35;17.00;99.90
32097;DHT22;18610;49.916;8.284;2023-07-28T03:51:02;17.00;99.90
32097;DHT22;18610;49.916;8.284;2023-07-28T03:53:29;17.00;99.90
32097;DHT22;18610;49.916;8.284;2023-07-28T03:55:56;17.00;99.90
32097;DHT22;18610;49.916;8.284;2023-07-28T03:58:23;17.00;99.90
32097;DHT22;18610;49.916;8.284;2023-07-28T04:00:52;17.00;99.90
32097;DHT22;18610;49.916;8.284;2023-07-28T04:03:20;17.00;99.90
32097;DHT22;18610;49.916;8.284;2023-07-28T04:05:46;17.00;99.90
32097;DHT22;18610;49.916;8.284;2023-07-28T04:08:13;17.00;99.90
32097;DHT22;18610;49.916;8.284;2023-07-28T04:10:42;17.00;99.90
32097;DHT22;18610;49.916;8.284;2023-07-28T04:13:09;17.00;99.90
32097;DHT22;18610;49.916;8.284;2023-07-28T04:15:35;17.00;99.90
32097;DHT22;18610;49.916;8.284;2023-07-28T04:18:04;17.10;99.90
32097;DHT22;18610;49.916;8.284;2023-07-28T04:20:30;17.10;99.90
32097;DHT22;18610;49.916;8.284;2023-07-28T04:22:57;17.10;99.90
32097;DHT22;18610;49.916;8.284;2023-07-28T04:25:23;17.10;99.90
32097;DHT22;18610;49.916;8.284;2023-07-28T04:27:50;17.10;99.90
32097;DHT22;18610;49.916;8.284;2023-07-28T04:30:17;17.10;99.90
32097;DHT22;18610;49.916;8.284;2023-07-28T04:32:43;17.20;99.90
32097;DHT22;18610;49.916;8.284;2023-07-28T04:35:12;17.20;99.90
32097;DHT22;18610;49.916;8.284;2023-07-28T04:37:38;17.20;99.90
32097;DHT22;18610;49.916;8.284;2023-07-28T04:40:07;17.20;99.90
32097;DHT22;18610;49.916;8.284;2023-07-28T04:42:34;17.30;99.90
32097;DHT22;18610;49.916;8.284;2023-07-28T04:45:01;17.30;99.90
32097;DHT22;18610;49.916;8.284;2023-07-28T04:47:28;17.30;99.90
32097;DHT22;18610;49.916;8.284;2023-07-28T04:49:55;17.30;99.90
32097;DHT22;18610;49.916;8.284;2023-07-28T04:52:23;17.30;99.90
32097;DHT22;18610;49.916;8.284;2023-07-28T04:54:49;17.30;99.90
32097;DHT22;18610;49.916;8.284;2023-07-28T04:57:16;17.30;99.90
32097;DHT22;18610;49.916;8.284;2023-07-28T04:59:45;17.30;99.90
32097;DHT22;18610;49.916;8.284;2023-07-28T05:02:12;17.40;99.90
32097;DHT22;18610;49.916;8.284;2023-07-28T05:04:39;17.40;99.90
32097;DHT22;18610;49.916;8.284;2023-07-28T05:07:05;17.40;99.90
32097;DHT22;18610;49.916;8.284;2023-07-28T05:09:35;17.40;99.90
32097;DHT22;18610;49.916;8.284;2023-07-28T05:12:03;17.50;99.90
32097;DHT22;18610;49.916;8.284;2023-07-28T05:14:30;17.50;99.90
32097;DHT22;18610;49.916;8.284;2023-07-28T05:16:56;17.60;99.90
32097;DHT22;18610;49.916;8.284;2023-07-28T05:19:23;17.60;99.90
32097;DHT22;18610;49.916;8.284;2023-07-28T05:21:50;17.60;99.90
32097;DHT22;18610;49.916;8.284;2023-07-28T05:24:16;17.60;99.90
32097;DHT22;18610;49.916;8.284;2023-07-28T05:26:44;17.60;99.90
32097;DHT22;18610;49.916;8.284;2023-07-28T05:29:11;17.70;99.90
32097;DHT22;18610;49.916;8.284;2023-07-28T05:31:38;17.70;99.90
32097;DHT22;18610;49.916;8.284;2023-07-28T05:34:04;17.70;99.90
32097;DHT22;18610;49.916;8.284;2023-07-28T05:36:31;17.70;99.90
32097;DHT22;18610;49.916;8.284;2023-07-28T05:38:57;17.80;99.90
32097;DHT22;18610;49.916;8.284;2023-07-28T05:41:24;17.80;99.90
32097;DHT22;18610;49.916;8.284;2023-07-28T05:43:52;17.90;99.90
32097;DHT22;18610;49.916;8.284;2023-07-28T05:46:19;17.90;99.90
32097;DHT22;18610;49.916;8.284;2023-07-28T05:48:45;18.00;99.90
32097;DHT22;18610;49.916;8.284;2023-07-28T05:51:12;18.10;99.90
32097;DHT22;18610;49.916;8.284;2023-07-28T05:53:39;18.10;99.90
32097;DHT22;18610;49.916;8.284;2023-07-28T05:56:06;18.20;99.90
32097;DHT22;18610;49.916;8.284;2023-07-28T05:58:32;18.30;99.90
32097;DHT22;18610;49.916;8.284;2023-07-28T06:01:00;18.30;99.90
32097;DHT22;18610;49.916;8.284;2023-07-28T06:03:27;18.40;99.90
32097;DHT22;18610;49.916;8.284;2023-07-28T06:05:54;18.40;99.90
32097;DHT22;18610;49.916;8.284;2023-07-28T06:08:21;18.50;99.90
32097;DHT22;18610;49.916;8.284;2023-07-28T06:10:48;18.50;99.90
32097;DHT22;18610;49.916;8.284;2023-07-28T06:13:14;18.50;99.90
32097;DHT22;18610;49.916;8.284;2023-07-28T06:15:42;18.60;99.90
32097;DHT22;18610;49.916;8.284;2023-07-28T06:18:10;18.70;99.90
32097;DHT22;18610;49.916;8.284;2023-07-28T06:20:36;18.90;99.90
32097;DHT22;18610;49.916;8.284;2023-07-28T06:23:03;19.00;99.90
32097;DHT22;18610;49.916;8.284;2023-07-28T06:25:30;19.20;99.90
32097;DHT22;18610;49.916;8.284;2023-07-28T06:27:57;19.30;99.90
32097;DHT22;18610;49.916;8.284;2023-07-28T06:30:23;19.40;99.90
32097;DHT22;18610;49.916;8.284;2023-07-28T06:32:50;19.50;99.90
32097;DHT22;18610;49.916;8.284;2023-07-28T06:35:18;19.60;99.90
32097;DHT22;18610;49.916;8.284;2023-07-28T06:37:44;19.70;99.90
32097;DHT22;18610;49.916;8.284;2023-07-28T06:40:11;19.90;99.90
32097;DHT22;18610;49.916;8.284;2023-07-28T06:42:38;19.90;99.90
32097;DHT22;18610;49.916;8.284;2023-07-28T06:45:05;20.00;99.90
32097;DHT22;18610;49.916;8.284;2023-07-28T06:47:32;20.10;99.90
32097;DHT22;18610;49.916;8.284;2023-07-28T06:49:59;20.20;99.90
32097;DHT22;18610;49.916;8.284;2023-07-28T06:52:28;20.30;99.90
32097;DHT22;18610;49.916;8.284;2023-07-28T06:54:54;20.40;99.90
32097;DHT22;18610;49.916;8.284;2023-07-28T06:57:21;20.60;99.90
32097;DHT22;18610;49.916;8.284;2023-07-28T06:59:48;20.70;99.90
32097;DHT22;18610;49.916;8.284;2023-07-28T07:02:14;20.80;99.90
32097;DHT22;18610;49.916;8.284;2023-07-28T07:04:41;20.90;99.90
32097;DHT22;18610;49.916;8.284;2023-07-28T07:07:08;20.90;99.90
32097;DHT22;18610;49.916;8.284;2023-07-28T07:09:36;20.90;99.90
32097;DHT22;18610;49.916;8.284;2023-07-28T07:12:04;20.90;99.90
32097;DHT22;18610;49.916;8.284;2023-07-28T07:14:31;20.90;99.90
32097;DHT22;18610;49.916;8.284;2023-07-28T07:16:57;21.00;99.90
32097;DHT22;18610;49.916;8.284;2023-07-28T07:19:24;21.00;99.90
32097;DHT22;18610;49.916;8.284;2023-07-28T07:21:51;21.10;99.90
32097;DHT22;18610;49.916;8.284;2023-07-28T07:24:17;21.10;99.90
32097;DHT22;18610;49.916;8.284;2023-07-28T07:26:45;21.20;99.90
32097;DHT22;18610;49.916;8.284;2023-07-28T07:29:12;21.20;99.90
32097;DHT22;18610;49.916;8.284;2023-07-28T07:31:39;21.10;99.90
32097;DHT22;18610;49.916;8.284;2023-07-28T07:34:06;21.00;99.90
32097;DHT22;18610;49.916;8.284;2023-07-28T07:36:33;20.90;99.90
32097;DHT22;18610;49.916;8.284;2023-07-28T07:38:59;20.80;99.90
32097;DHT22;18610;49.916;8.284;2023-07-28T07:41:26;20.80;99.90
32097;DHT22;18610;49.916;8.284;2023-07-28T07:43:54;20.70;99.90
32097;DHT22;18610;49.916;8.284;2023-07-28T07:46:21;20.70;99.90
32097;DHT22;18610;49.916;8.284;2023-07-28T07:48:48;20.70;99.90
32097;DHT22;18610;49.916;8.284;2023-07-28T07:51:15;20.70;99.90
32097;DHT22;18610;49.916;8.284;2023-07-28T07:53:42;20.80;99.90
32097;DHT22;18610;49.916;8.284;2023-07-28T07:56:09;20.80;99.90
32097;DHT22;18610;49.916;8.284;2023-07-28T07:58:36;20.80;99.90
32097;DHT22;18610;49.916;8.284;2023-07-28T08:01:05;20.90;99.90
32097;DHT22;18610;49.916;8.284;2023-07-28T08:03:32;20.90;99.90
32097;DHT22;18610;49.916;8.284;2023-07-28T08:05:58;21.00;99.90
32097;DHT22;18610;49.916;8.284;2023-07-28T08:08:25;21.10;99.90
32097;DHT22;18610;49.916;8.284;2023-07-28T08:10:52;21.10;99.90
32097;DHT22;18610;49.916;8.284;2023-07-28T08:13:19;21.20;99.90
32097;DHT22;18610;49.916;8.284;2023-07-28T08:15:46;21.30;99.90
32097;DHT22;18610;49.916;8.284;2023-07-28T08:18:14;21.50;99.90
32097;DHT22;18610;49.916;8.284;2023-07-28T08:20:41;21.60;99.90
32097;DHT22;18610;49.916;8.284;2023-07-28T08:23:08;21.70;99.90
32097;DHT22;18610;49.916;8.284;2023-07-28T08:25:35;21.80;99.90
32097;DHT22;18610;49.916;8.284;2023-07-28T08:28:02;21.70;99.90
32097;DHT22;18610;49.916;8.284;2023-07-28T08:30:29;21.70;99.90
32097;DHT22;18610;49.916;8.284;2023-07-28T08:32:57;21.80;99.90
32097;DHT22;18610;49.916;8.284;2023-07-28T08:35:25;21.90;99.90
32097;DHT22;18610;49.916;8.284;2023-07-28T08:37:52;22.00;99.90
32097;DHT22;18610;49.916;8.284;2023-07-28T08:40:19;22.10;99.90
32097;DHT22;18610;49.916;8.284;2023-07-28T08:42:46;22.10;99.90
32097;DHT22;18610;49.916;8.284;2023-07-28T08:45:15;22.20;99.90
32097;DHT22;18610;49.916;8.284;2023-07-28T08:47:42;22.40;99.90
32097;DHT22;18610;49.916;8.284;2023-07-28T08:50:09;22.50;99.90
32097;DHT22;18610;49.916;8.284;2023-07-28T08:52:37;22.50;99.90
32097;DHT22;18610;49.916;8.284;2023-07-28T08:55:05;22.60;99.90
32097;DHT22;18610;49.916;8.284;2023-07-28T08:57:32;22.70;99.90
32097;DHT22;18610;49.916;8.284;2023-07-28T08:59:58;23.00;99.90
32097;DHT22;18610;49.916;8.284;2023-07-28T09:02:25;23.20;99.90
32097;DHT22;18610;49.916;8.284;2023-07-28T09:04:51;23.40;99.90
32097;DHT22;18610;49.916;8.284;2023-07-28T09:07:18;23.40;99.90
32097;DHT22;18610;49.916;8.284;2023-07-28T09:09:46;23.40;99.90
32097;DHT22;18610;49.916;8.284;2023-07-28T09:12:13;23.50;99.90
32097;DHT22;18610;49.916;8.284;2023-07-28T09:14:40;23.70;99.90
32097;DHT22;18610;49.916;8.284;2023-07-28T09:17:08;23.90;99.90
32097;DHT22;18610;49.916;8.284;2023-07-28T09:19:49;24.00;99.90
32097;DHT22;18610;49.916;8.284;2023-07-28T09:22:16;24.20;99.90
32097;DHT22;18610;49.916;8.284;2023-07-28T09:24:43;24.30;99.90
32097;DHT22;18610;49.916;8.284;2023-07-28T09:27:20;24.20;99.90
32097;DHT22;18610;49.916;8.284;2023-07-28T09:29:48;24.20;99.90
32097;DHT22;18610;49.916;8.284;2023-07-28T09:32:15;24.10;99.90
32097;DHT22;18610;49.916;8.284;2023-07-28T09:34:41;24.00;99.90
32097;DHT22;18610;49.916;8.284;2023-07-28T09:37:09;24.10;99.90
32097;DHT22;18610;49.916;8.284;2023-07-28T09:39:36;24.20;99.90
32097;DHT22;18610;49.916;8.284;2023-07-28T09:42:05;24.40;99.90
32097;DHT22;18610;49.916;8.284;2023-07-28T09:44:36;24.50;99.90
32097;DHT22;18610;49.916;8.284;2023-07-28T09:47:03;24.60;99.90
32097;DHT22;18610;49.916;8.284;2023-07-28T09:49:35;24.70;99.90
32097;DHT22;18610;49.916;8.284;2023-07-28T09:52:04;24.80;99.90
32097;DHT22;18610;49.916;8.284;2023-07-28T09:54:36;25.00;99.90
32097;DHT22;18610;49.916;8.284;2023-07-28T09:57:06;25.20;99.90
32097;DHT22;18610;49.916;8.284;2023-07-28T09:59:38;25.20;99.90
32097;DHT22;18610;49.916;8.284;2023-07-28T10:02:06;25.20;99.90
32097;DHT22;18610;49.916;8.284;2023-07-28T10:04:33;25.10;99.90
32097;DHT22;18610;49.916;8.284;2023-07-28T10:07:01;25.00;99.90
32097;DHT22;18610;49.916;8.284;2023-07-28T10:09:29;24.80;99.90
32097;DHT22;18610;49.916;8.284;2023-07-28T10:11:56;24.60;99.90
32097;DHT22;18610;49.916;8.284;2023-07-28T10:14:26;24.30;99.90
32097;DHT22;18610;49.916;8.284;2023-07-28T10:16:56;24.10;99.90
32097;DHT22;18610;49.916;8.284;2023-07-28T10:19:24;24.00;99.90
32097;DHT22;18610;49.916;8.284;2023-07-28T10:21:59;23.90;99.90
32097;DHT22;18610;49.916;8.284;2023-07-28T10:24:49;23.90;99.90
32097;DHT22;18610;49.916;8.284;2023-07-28T10:27:28;23.90;99.90
32097;DHT22;18610;49.916;8.284;2023-07-28T10:29:58;24.10;99.90
32097;DHT22;18610;49.916;8.284;2023-07-28T10:32:27;24.20;99.90
32097;DHT22;18610;49.916;8.284;2023-07-28T10:35:02;24.10;99.90
32097;DHT22;18610;49.916;8.284;2023-07-28T10:37:33;24.00;99.90
32097;DHT22;18610;49.916;8.284;2023-07-28T10:40:22;23.80;99.90
32097;DHT22;18610;49.916;8.284;2023-07-28T10:42:49;23.60;99.90
32097;DHT22;18610;49.916;8.284;2023-07-28T10:45:16;23.60;99.90
32097;DHT22;18610;49.916;8.284;2023-07-28T10:47:45;23.50;99.90
32097;DHT22;18610;49.916;8.284;2023-07-28T10:50:13;23.40;99.90
32097;DHT22;18610;49.916;8.284;2023-07-28T10:52:40;23.30;99.90
32097;DHT22;18610;49.916;8.284;2023-07-28T10:55:12;23.20;99.90
32097;DHT22;18610;49.916;8.284;2023-07-28T10:57:40;23.10;99.90
32097;DHT22;18610;49.916;8.284;2023-07-28T11:00:07;23.00;99.90
32097;DHT22;18610;49.916;8.284;2023-07-28T11:02:37;22.90;99.90
32097;DHT22;18610;49.916;8.284;2023-07-28T11:05:09;23.00;99.90
32097;DHT22;18610;49.916;8.284;2023-07-28T11:07:36;23.10;99.90
32097;DHT22;18610;49.916;8.284;2023-07-28T11:10:04;23.20;99.90
32097;DHT22;18610;49.916;8.284;2023-07-28T11:12:32;23.30;99.90
32097;DHT22;18610;49.916;8.284;2023-07-28T11:14:59;23.20;99.90
32097;DHT22;18610;49.916;8.284;2023-07-28T11:17:25;23.20;99.90
32097;DHT22;18610;49.916;8.284;2023-07-28T11:19:53;23.10;99.90
32097;DHT22;18610;49.916;8.284;2023-07-28T11:22:21;23.10;99.90
32097;DHT22;18610;49.916;8.284;2023-07-28T11:24:51;23.20;99.90
32097;DHT22;18610;49.916;8.284;2023-07-28T11:27:17;23.20;99.90
32097;DHT22;18610;49.916;8.284;2023-07-28T11:29:44;23.10;99.90
32097;DHT22;18610;49.916;8.284;2023-07-28T11:32:12;23.10;99.90
32097;DHT22;18610;49.916;8.284;2023-07-28T11:34:41;23.00;99.90
32097;DHT22;18610;49.916;8.284;2023-07-28T11:37:10;22.90;99.90
32097;DHT22;18610;49.916;8.284;2023-07-28T11:39:39;22.90;99.90
32097;DHT22;18610;49.916;8.284;2023-07-28T11:42:06;22.80;99.90
32097;DHT22;18610;49.916;8.284;2023-07-28T11:44:33;22.60;99.90
32097;DHT22;18610;49.916;8.284;2023-07-28T11:47:05;22.50;99.90
32097;DHT22;18610;49.916;8.284;2023-07-28T11:49:31;22.50;99.90
32097;DHT22;18610;49.916;8.284;2023-07-28T11:51:58;22.40;99.90
32097;DHT22;18610;49.916;8.284;2023-07-28T11:54:26;22.30;99.90
32097;DHT22;18610;49.916;8.284;2023-07-28T11:56:56;22.30;99.90
32097;DHT22;18610;49.916;8.284;2023-07-28T11:59:23;22.20;99.90
32097;DHT22;18610;49.916;8.284;2023-07-28T12:01:54;22.20;99.90
32097;DHT22;18610;49.916;8.284;2023-07-28T12:04:22;22.10;99.90
32097;DHT22;18610;49.916;8.284;2023-07-28T12:07:11;22.10;99.90
32097;DHT22;18610;49.916;8.284;2023-07-28T12:09:50;22.10;99.90
32097;DHT22;18610;49.916;8.284;2023-07-28T12:12:20;22.10;99.90
32097;DHT22;18610;49.916;8.284;2023-07-28T12:14:47;22.10;99.90
32097;DHT22;18610;49.916;8.284;2023-07-28T12:17:17;22.10;99.90
32097;DHT22;18610;49.916;8.284;2023-07-28T12:19:55;22.10;99.90
32097;DHT22;18610;49.916;8.284;2023-07-28T12:22:23;22.20;99.90
32097;DHT22;18610;49.916;8.284;2023-07-28T12:24:49;22.20;99.90
32097;DHT22;18610;49.916;8.284;2023-07-28T12:27:16;22.30;99.90
32097;DHT22;18610;49.916;8.284;2023-07-28T12:29:44;22.30;99.90
32097;DHT22;18610;49.916;8.284;2023-07-28T12:32:11;22.40;99.90
32097;DHT22;18610;49.916;8.284;2023-07-28T12:34:38;22.50;99.90
32097;DHT22;18610;49.916;8.284;2023-07-28T12:37:05;22.60;99.90
32097;DHT22;18610;49.916;8.284;2023-07-28T12:39:33;22.80;99.90
32097;DHT22;18610;49.916;8.284;2023-07-28T12:42:00;23.00;99.90
32097;DHT22;18610;49.916;8.284;2023-07-28T12:44:27;23.10;99.90
32097;DHT22;18610;49.916;8.284;2023-07-28T12:46:55;23.10;99.90
32097;DHT22;18610;49.916;8.284;2023-07-28T12:49:21;23.10;99.90
32097;DHT22;18610;49.916;8.284;2023-07-28T12:51:48;23.20;99.90
32097;DHT22;18610;49.916;8.284;2023-07-28T12:54:15;23.40;99.90
32097;DHT22;18610;49.916;8.284;2023-07-28T12:56:42;23.70;99.90
32097;DHT22;18610;49.916;8.284;2023-07-28T12:59:09;23.90;99.90
32097;DHT22;18610;49.916;8.284;2023-07-28T13:01:37;24.00;99.90
32097;DHT22;18610;49.916;8.284;2023-07-28T13:04:07;24.20;99.90
32097;DHT22;18610;49.916;8.284;2023-07-28T13:06:34;24.40;99.90
32097;DHT22;18610;49.916;8.284;2023-07-28T13:09:02;24.70;99.90
32097;DHT22;18610;49.916;8.284;2023-07-28T13:11:29;24.70;99.90
32097;DHT22;18610;49.916;8.284;2023-07-28T13:13:55;24.80;99.90
32097;DHT22;18610;49.916;8.284;2023-07-28T13:16:22;24.80;99.90
32097;DHT22;18610;49.916;8.284;2023-07-28T13:18:49;24.80;99.90
32097;DHT22;18610;49.916;8.284;2023-07-28T13:21:17;24.80;99.90
32097;DHT22;18610;49.916;8.284;2023-07-28T13:23:44;24.60;99.90
32097;DHT22;18610;49.916;8.284;2023-07-28T13:26:11;24.40;99.90
32097;DHT22;18610;49.916;8.284;2023-07-28T13:28:37;24.20;99.90
32097;DHT22;18610;49.916;8.284;2023-07-28T13:31:12;24.20;99.90
32097;DHT22;18610;49.916;8.284;2023-07-28T13:33:39;24.10;99.90
32097;DHT22;18610;49.916;8.284;2023-07-28T13:36:05;23.90;99.90
32097;DHT22;18610;49.916;8.284;2023-07-28T13:38:34;23.80;99.90
32097;DHT22;18610;49.916;8.284;2023-07-28T13:41:03;23.70;99.90
32097;DHT22;18610;49.916;8.284;2023-07-28T13:43:31;23.60;99.90
32097;DHT22;18610;49.916;8.284;2023-07-28T13:45:58;23.40;99.90
32097;DHT22;18610;49.916;8.284;2023-07-28T13:48:25;23.30;99.90
32097;DHT22;18610;49.916;8.284;2023-07-28T13:50:52;23.20;99.90
32097;DHT22;18610;49.916;8.284;2023-07-28T13:53:18;23.20;99.90
32097;DHT22;18610;49.916;8.284;2023-07-28T13:55:46;23.00;99.90
32097;DHT22;18610;49.916;8.284;2023-07-28T13:58:13;22.90;99.90
32097;DHT22;18610;49.916;8.284;2023-07-28T14:00:40;22.80;99.90
32097;DHT22;18610;49.916;8.284;2023-07-28T14:03:06;22.70;99.90
32097;DHT22;18610;49.916;8.284;2023-07-28T14:05:33;22.70;99.90
32097;DHT22;18610;49.916;8.284;2023-07-28T14:08:00;22.60;99.90
32097;DHT22;18610;49.916;8.284;2023-07-28T14:10:26;22.60;99.90
32097;DHT22;18610;49.916;8.284;2023-07-28T14:12:54;22.60;99.90
32097;DHT22;18610;49.916;8.284;2023-07-28T14:15:21;22.50;99.90
32097;DHT22;18610;49.916;8.284;2023-07-28T14:17:48;22.50;99.90
32097;DHT22;18610;49.916;8.284;2023-07-28T14:20:14;22.50;99.90
32097;DHT22;18610;49.916;8.284;2023-07-28T14:22:41;22.50;99.90
32097;DHT22;18610;49.916;8.284;2023-07-28T14:25:08;22.60;99.90
32097;DHT22;18610;49.916;8.284;2023-07-28T14:27:35;22.60;99.90
32097;DHT22;18610;49.916;8.284;2023-07-28T14:30:03;22.60;99.90
32097;DHT22;18610;49.916;8.284;2023-07-28T14:32:30;22.60;99.90
32097;DHT22;18610;49.916;8.284;2023-07-28T14:34:57;22.70;99.90
32097;DHT22;18610;49.916;8.284;2023-07-28T14:37:23;22.70;99.90
32097;DHT22;18610;49.916;8.284;2023-07-28T14:39:50;22.80;99.90
32097;DHT22;18610;49.916;8.284;2023-07-28T14:42:17;22.80;99.90
32097;DHT22;18610;49.916;8.284;2023-07-28T14:44:43;22.80;99.90
32097;DHT22;18610;49.916;8.284;2023-07-28T14:47:11;22.90;99.90
32097;DHT22;18610;49.916;8.284;2023-07-28T14:49:38;22.90;99.90
32097;DHT22;18610;49.916;8.284;2023-07-28T14:52:05;22.90;99.90
32097;DHT22;18610;49.916;8.284;2023-07-28T14:54:32;22.90;99.90
32097;DHT22;18610;49.916;8.284;2023-07-28T14:56:59;23.00;99.90
32097;DHT22;18610;49.916;8.284;2023-07-28T14:59:26;23.10;99.90
32097;DHT22;18610;49.916;8.284;2023-07-28T15:01:52;23.10;99.90
32097;DHT22;18610;49.916;8.284;2023-07-28T15:04:20;23.10;99.90
32097;DHT22;18610;49.916;8.284;2023-07-28T15:06:47;23.20;99.90
32097;DHT22;18610;49.916;8.284;2023-07-28T15:09:14;23.30;99.90
32097;DHT22;18610;49.916;8.284;2023-07-28T15:11:44;23.30;99.90
32097;DHT22;18610;49.916;8.284;2023-07-28T15:14:10;23.30;99.90
32097;DHT22;18610;49.916;8.284;2023-07-28T15:16:38;23.30;99.90
32097;DHT22;18610;49.916;8.284;2023-07-28T15:19:05;23.30;99.90
32097;DHT22;18610;49.916;8.284;2023-07-28T15:21:33;23.20;99.90
32097;DHT22;18610;49.916;8.284;2023-07-28T15:23:59;23.10;99.90
32097;DHT22;18610;49.916;8.284;2023-07-28T15:26:26;23.00;99.90
32097;DHT22;18610;49.916;8.284;2023-07-28T15:28:53;22.90;99.90
32097;DHT22;18610;49.916;8.284;2023-07-28T15:31:21;22.90;99.90